Time;durP1;ratioP1;P1;durP2;ratioP2;P2;SDS_P1;SDS_P2;PMS_P1;PMS_P2;Temp;Humidity;BMP_temperature;BMP_pressure;BME280_temperature;BME280_humidity;BME280_pressure;Samples;Min_cycle;Max_cycle;Signal;HPM_P1;HPM_P2
2022/08/21 00:02:21;;;;;;;34.40;24.10;;;20.30;99.90;;;;;;5112188;28;20036;-89
2022/08/21 00:04:48;;;;;;;33.85;24.42;;;20.40;99.90;;;;;;5104245;28;20028;-82
2022/08/21 00:07:13;;;;;;;34.90;23.67;;;20.30;99.90;;;;;;5128375;27;20020;-82
2022/08/21 00:09:39;;;;;;;37.05;23.67;;;20.30;99.90;;;;;;5105570;28;20085;-85
2022/08/21 00:12:05;;;;;;;34.88;23.48;;;20.30;99.90;;;;;;5110339;28;20019;-84
2022/08/21 00:14:31;;;;;;;34.72;23.60;;;20.30;99.90;;;;;;5112206;28;20023;-85
2022/08/21 00:16:56;;;;;;;31.38;22.42;;;20.30;99.90;;;;;;5110283;28;20035;-83
2022/08/21 00:19:24;;;;;;;31.33;23.55;;;20.20;99.90;;;;;;5109107;27;20119;-81
2022/08/21 00:21:51;;;;;;;29.83;21.80;;;20.20;99.90;;;;;;5125738;27;20034;-86
2022/08/21 00:24:17;;;;;;;30.98;22.15;;;20.20;99.90;;;;;;5102678;28;20050;-81
2022/08/21 00:26:43;;;;;;;27.98;20.48;;;20.20;99.90;;;;;;5111435;28;20393;-85
2022/08/21 00:29:09;;;;;;;34.47;22.63;;;20.20;99.90;;;;;;5111466;28;20043;-81
2022/08/21 00:31:35;;;;;;;30.02;21.77;;;20.20;99.90;;;;;;5110234;28;20052;-81
2022/08/21 00:34:00;;;;;;;24.27;18.45;;;20.20;99.90;;;;;;5111651;27;20031;-81
2022/08/21 00:36:26;;;;;;;31.50;20.52;;;20.20;99.90;;;;;;5109441;28;20031;-83
2022/08/21 00:38:51;;;;;;;27.63;20.42;;;20.20;99.90;;;;;;5110108;28;20034;-86
2022/08/21 00:41:17;;;;;;;25.75;18.95;;;20.20;99.90;;;;;;5112797;28;20469;-83
2022/08/21 00:43:42;;;;;;;23.58;17.33;;;20.10;99.90;;;;;;5111633;28;20031;-83
2022/08/21 00:46:08;;;;;;;25.08;18.17;;;20.20;99.90;;;;;;5105727;28;20715;-82
2022/08/21 00:48:34;;;;;;;24.80;17.35;;;20.20;99.90;;;;;;5107443;28;20044;-81
2022/08/21 00:51:13;;;;;;;21.77;16.75;;;20.20;99.90;;;;;;5109292;28;20024;-83
2022/08/21 00:53:41;;;;;;;19.42;14.80;;;20.10;99.90;;;;;;5115893;28;20059;-82
2022/08/21 00:56:10;;;;;;;16.58;14.40;;;20.20;99.90;;;;;;5114355;28;20039;-83
2022/08/21 00:58:37;;;;;;;20.20;15.50;;;20.20;99.90;;;;;;5105785;28;20904;-80
2022/08/21 01:01:05;;;;;;;20.85;14.95;;;20.10;99.90;;;;;;5106934;28;20039;-79
2022/08/21 01:03:31;;;;;;;18.17;14.40;;;20.10;99.90;;;;;;5118091;27;20024;-82
2022/08/21 01:05:56;;;;;;;15.82;12.77;;;20.10;99.90;;;;;;5106012;28;20036;-82
2022/08/21 01:08:23;;;;;;;18.33;13.05;;;20.20;99.90;;;;;;5112120;28;20024;-82
2022/08/21 01:10:49;;;;;;;19.65;13.00;;;20.10;99.90;;;;;;5110919;28;20059;-83
2022/08/21 01:13:17;;;;;;;18.48;14.43;;;20.10;99.90;;;;;;5109973;28;20452;-84
2022/08/21 01:15:47;;;;;;;15.18;12.65;;;20.20;99.90;;;;;;5098022;28;20438;-83
2022/08/21 01:18:14;;;;;;;17.50;12.50;;;20.20;99.90;;;;;;5122207;27;20098;-83
2022/08/21 01:20:44;;;;;;;17.05;11.75;;;20.10;99.90;;;;;;5107278;27;20059;-83
2022/08/21 01:23:10;;;;;;;15.02;11.88;;;20.10;99.90;;;;;;5109318;28;20038;-85
2022/08/21 01:25:35;;;;;;;14.15;11.52;;;20.10;99.90;;;;;;5109526;28;20031;-83
2022/08/21 01:28:08;;;;;;;13.20;10.52;;;20.10;99.90;;;;;;5104657;28;20466;-86
2022/08/21 01:30:36;;;;;;;14.07;11.98;;;20.10;99.90;;;;;;5109836;28;20146;-88
2022/08/21 01:33:02;;;;;;;12.25;9.82;;;20.10;99.90;;;;;;5108068;28;20470;-85
2022/08/21 01:35:27;;;;;;;10.95;9.45;;;20.10;99.90;;;;;;5100430;27;20224;-83
2022/08/21 01:37:53;;;;;;;12.05;9.50;;;20.10;99.90;;;;;;5103731;28;20107;-89
2022/08/21 01:40:19;;;;;;;13.02;10.63;;;20.10;99.90;;;;;;5102958;28;20035;-83
2022/08/21 01:42:46;;;;;;;14.63;11.07;;;20.10;99.90;;;;;;5098685;28;20505;-83
2022/08/21 01:45:12;;;;;;;12.90;10.57;;;20.00;99.90;;;;;;5104575;28;20031;-83
2022/08/21 01:47:38;;;;;;;12.30;9.73;;;20.00;99.90;;;;;;5099786;28;20471;-87
2022/08/21 01:50:08;;;;;;;14.65;10.80;;;20.00;99.90;;;;;;5101266;28;20028;-84
2022/08/21 01:52:33;;;;;;;12.48;10.05;;;20.00;99.90;;;;;;5102597;28;20042;-86
2022/08/21 01:54:59;;;;;;;13.90;10.65;;;19.90;99.90;;;;;;5105846;28;20024;-88
2022/08/21 01:57:24;;;;;;;14.85;11.40;;;19.90;99.90;;;;;;5105989;28;20107;-83
2022/08/21 01:59:50;;;;;;;12.93;10.40;;;19.70;99.90;;;;;;5106020;28;20382;-82
2022/08/21 02:02:15;;;;;;;16.17;10.43;;;19.70;99.90;;;;;;5107580;28;20063;-86
2022/08/21 02:04:41;;;;;;;12.30;10.13;;;19.70;99.90;;;;;;5110651;28;20441;-83
2022/08/21 02:07:06;;;;;;;13.93;11.10;;;19.80;99.90;;;;;;5107111;28;20463;-83
2022/08/21 02:09:33;;;;;;;14.07;11.45;;;19.80;99.90;;;;;;5105952;28;20039;-88
2022/08/21 02:11:59;;;;;;;12.10;10.57;;;19.80;99.90;;;;;;5110564;28;20490;-86
2022/08/21 02:14:24;;;;;;;13.52;10.60;;;19.70;99.90;;;;;;5108500;28;20042;-86
2022/08/21 02:16:50;;;;;;;12.00;9.65;;;19.70;99.90;;;;;;5092413;28;20473;-83
2022/08/21 02:19:15;;;;;;;13.68;10.90;;;19.70;99.90;;;;;;5109894;28;20059;-83
2022/08/21 02:21:41;;;;;;;14.90;11.23;;;19.70;99.90;;;;;;5106143;28;20028;-83
2022/08/21 02:24:08;;;;;;;15.80;10.85;;;19.70;99.90;;;;;;5108521;28;20029;-82
2022/08/21 02:26:34;;;;;;;12.80;10.38;;;19.80;99.90;;;;;;5120883;28;20063;-83
2022/08/21 02:29:00;;;;;;;12.68;10.00;;;19.80;99.90;;;;;;5098502;28;20023;-87
2022/08/21 02:31:25;;;;;;;15.07;9.82;;;19.80;99.90;;;;;;5105460;28;20032;-84
2022/08/21 02:33:51;;;;;;;19.73;10.80;;;19.80;99.90;;;;;;5108629;28;20031;-83
2022/08/21 02:36:17;;;;;;;12.85;9.70;;;19.70;99.90;;;;;;5108255;28;20053;-86
2022/08/21 02:38:43;;;;;;;18.70;10.27;;;19.70;99.90;;;;;;5102337;28;20027;-83
2022/08/21 02:41:18;;;;;;;13.77;10.45;;;19.70;99.90;;;;;;5110672;28;20036;-83
2022/08/21 02:43:44;;;;;;;10.63;9.25;;;19.60;99.90;;;;;;5108600;28;20715;-87
2022/08/21 02:46:13;;;;;;;14.10;10.82;;;19.60;99.90;;;;;;5107226;28;20024;-82
2022/08/21 02:48:39;;;;;;;13.18;10.20;;;19.60;99.90;;;;;;5101300;28;20098;-83
2022/08/21 02:51:08;;;;;;;13.57;9.80;;;19.40;99.90;;;;;;5097374;28;20032;-82
2022/08/21 02:53:35;;;;;;;14.43;9.93;;;19.40;99.90;;;;;;5110259;28;20040;-83
2022/08/21 02:56:03;;;;;;;12.95;10.13;;;19.40;99.90;;;;;;5104401;28;20396;-83
2022/08/21 02:58:33;;;;;;;13.60;8.90;;;19.40;99.90;;;;;;5103921;28;20020;-85
2022/08/21 03:00:58;;;;;;;13.00;9.75;;;19.40;99.90;;;;;;5105388;28;20066;-84
2022/08/21 03:03:26;;;;;;;12.82;9.40;;;19.50;99.90;;;;;;5096423;28;20627;-86
2022/08/21 03:05:52;;;;;;;12.52;9.57;;;19.50;99.90;;;;;;5100741;28;20035;-83
2022/08/21 03:08:18;;;;;;;15.15;9.35;;;19.50;99.90;;;;;;5112133;28;20028;-85
2022/08/21 03:10:49;;;;;;;11.23;8.45;;;19.50;99.90;;;;;;5113374;28;20031;-83
2022/08/21 03:13:16;;;;;;;10.63;8.60;;;19.50;99.90;;;;;;5107438;28;20122;-82
2022/08/21 03:15:42;;;;;;;11.00;8.70;;;19.50;99.90;;;;;;5106611;28;20040;-85
2022/08/21 03:18:09;;;;;;;11.52;8.50;;;19.50;99.90;;;;;;5113662;28;20032;-83
2022/08/21 03:20:36;;;;;;;12.68;8.43;;;19.50;99.90;;;;;;5112412;28;20024;-83
2022/08/21 03:23:03;;;;;;;8.73;7.68;;;19.60;99.90;;;;;;5109110;28;20150;-86
2022/08/21 03:25:31;;;;;;;11.13;8.73;;;19.50;99.90;;;;;;5102988;28;20024;-83
2022/08/21 03:27:58;;;;;;;11.43;7.57;;;19.50;99.90;;;;;;5099118;28;20028;-88
2022/08/21 03:30:23;;;;;;;12.23;8.15;;;19.50;99.90;;;;;;5106938;28;20039;-83
2022/08/21 03:32:50;;;;;;;12.30;8.25;;;19.50;99.90;;;;;;5104408;27;20023;-83
2022/08/21 03:35:16;;;;;;;11.07;8.00;;;19.50;99.90;;;;;;5110963;27;20032;-83
2022/08/21 03:37:41;;;;;;;12.73;9.50;;;19.50;99.90;;;;;;5113666;28;20110;-82
2022/08/21 03:40:08;;;;;;;10.68;8.25;;;19.40;99.90;;;;;;5114042;27;20036;-86
2022/08/21 03:42:34;;;;;;;10.50;7.07;;;19.40;99.90;;;;;;5112090;28;20028;-83
2022/08/21 03:45:00;;;;;;;13.02;7.55;;;19.40;99.90;;;;;;5111442;28;20115;-87
2022/08/21 03:47:26;;;;;;;9.95;7.53;;;19.40;99.90;;;;;;5101932;28;20039;-83
2022/08/21 03:49:51;;;;;;;8.85;7.05;;;19.40;99.90;;;;;;5113766;28;20035;-92
2022/08/21 03:52:17;;;;;;;8.07;6.68;;;19.40;99.90;;;;;;5111768;28;20453;-89
2022/08/21 03:54:44;;;;;;;10.90;7.90;;;19.40;99.90;;;;;;5109747;28;20024;-91
2022/08/21 03:57:10;;;;;;;9.60;7.25;;;19.40;99.90;;;;;;5108643;27;20024;-83
2022/08/21 03:59:36;;;;;;;10.07;6.90;;;19.40;99.90;;;;;;5097355;28;20119;-87
2022/08/21 04:02:04;;;;;;;7.30;6.45;;;19.40;99.90;;;;;;5109939;28;20031;-83
2022/08/21 04:04:30;;;;;;;9.10;6.57;;;19.40;99.90;;;;;;5110640;28;20035;-81
2022/08/21 04:06:57;;;;;;;9.32;6.40;;;19.40;99.90;;;;;;5109255;28;20106;-84
2022/08/21 04:09:23;;;;;;;7.00;5.53;;;19.40;99.90;;;;;;5102450;28;20032;-83
2022/08/21 04:11:49;;;;;;;9.43;6.10;;;19.30;99.90;;;;;;5112676;28;20110;-85
2022/08/21 04:14:15;;;;;;;10.80;5.70;;;19.30;99.90;;;;;;5109290;28;20070;-85
2022/08/21 04:16:42;;;;;;;10.32;6.65;;;19.30;99.90;;;;;;5099470;28;20032;-84
2022/08/21 04:19:08;;;;;;;9.57;6.20;;;19.30;99.90;;;;;;5103621;28;20036;-83
2022/08/21 04:21:36;;;;;;;6.57;5.57;;;19.30;99.90;;;;;;5100605;28;20068;-86
2022/08/21 04:24:01;;;;;;;7.47;6.20;;;19.30;99.90;;;;;;5104794;28;20020;-83
2022/08/21 04:26:28;;;;;;;6.38;5.30;;;19.20;99.90;;;;;;5098046;28;20020;-83
2022/08/21 04:28:55;;;;;;;7.07;5.20;;;19.20;99.90;;;;;;5109339;28;20106;-84
2022/08/21 04:31:21;;;;;;;7.50;5.20;;;19.20;99.90;;;;;;5106824;28;20378;-86
2022/08/21 04:33:46;;;;;;;9.07;4.20;;;19.20;99.90;;;;;;5099123;28;20039;-86
2022/08/21 04:36:12;;;;;;;5.88;4.95;;;19.20;99.90;;;;;;5099877;28;20386;-83
2022/08/21 04:38:37;;;;;;;6.70;4.82;;;19.20;99.90;;;;;;5105818;28;20031;-90
2022/08/21 04:41:05;;;;;;;9.48;5.05;;;19.20;99.90;;;;;;5098420;28;20497;-84
2022/08/21 04:43:30;;;;;;;6.10;5.15;;;19.20;99.90;;;;;;5110207;28;20030;-81
2022/08/21 04:45:56;;;;;;;5.15;3.58;;;19.20;99.90;;;;;;5108353;28;20024;-84
2022/08/21 04:48:23;;;;;;;6.40;4.13;;;19.20;99.90;;;;;;5109439;28;20028;-89
2022/08/21 04:51:06;;;;;;;5.05;3.67;;;19.20;99.90;;;;;;5106413;27;20172;-88
2022/08/21 04:53:34;;;;;;;5.13;4.18;;;19.20;99.90;;;;;;5104112;28;20087;-86
2022/08/21 04:56:08;;;;;;;5.30;3.28;;;19.30;99.90;;;;;;5105282;28;20034;-84
2022/08/21 04:58:36;;;;;;;8.38;4.22;;;19.30;99.90;;;;;;5110762;28;20031;-83
2022/08/21 05:01:03;;;;;;;8.05;3.85;;;19.30;99.90;;;;;;5111824;28;20169;-82
2022/08/21 05:03:31;;;;;;;9.45;4.47;;;19.30;99.90;;;;;;5111380;28;20034;-83
2022/08/21 05:05:57;;;;;;;5.05;3.80;;;19.30;99.90;;;;;;5109333;28;20020;-84
2022/08/21 05:08:25;;;;;;;5.75;3.60;;;19.30;99.90;;;;;;5111593;28;20027;-85
2022/08/21 05:10:50;;;;;;;8.68;3.13;;;19.40;99.90;;;;;;5110049;28;20388;-84
2022/08/21 05:13:16;;;;;;;6.35;3.35;;;19.40;99.90;;;;;;5112575;28;20044;-87
2022/08/21 05:15:42;;;;;;;4.95;3.10;;;19.40;99.90;;;;;;5109561;28;20034;-87
2022/08/21 05:18:07;;;;;;;3.47;3.08;;;19.40;99.90;;;;;;5108065;27;20036;-84
2022/08/21 05:20:34;;;;;;;5.60;3.10;;;19.50;99.90;;;;;;5101762;28;20040;-85
2022/08/21 05:23:00;;;;;;;5.38;3.53;;;19.40;99.90;;;;;;5111603;28;20035;-85
2022/08/21 05:25:26;;;;;;;5.70;2.97;;;19.40;99.90;;;;;;5110751;27;20451;-83
2022/08/21 05:27:53;;;;;;;4.45;3.30;;;19.50;99.90;;;;;;5109499;28;20051;-83
2022/08/21 05:30:20;;;;;;;6.00;4.25;;;19.50;99.90;;;;;;5108188;28;20468;-84
2022/08/21 05:32:47;;;;;;;8.65;3.35;;;19.50;99.90;;;;;;5102992;28;20042;-88
2022/08/21 05:35:13;;;;;;;5.30;3.42;;;19.50;99.90;;;;;;5109491;27;20027;-84
2022/08/21 05:37:39;;;;;;;4.97;2.65;;;19.40;99.90;;;;;;5108571;28;20557;-84
2022/08/21 05:40:06;;;;;;;6.50;3.05;;;19.40;99.90;;;;;;5106034;28;20035;-85
2022/08/21 05:42:32;;;;;;;7.05;3.20;;;19.40;99.90;;;;;;5109742;28;20038;-86
2022/08/21 05:44:57;;;;;;;7.18;3.20;;;19.40;99.90;;;;;;5098339;28;20024;-86
2022/08/21 05:47:23;;;;;;;4.70;3.08;;;19.50;99.90;;;;;;5109219;28;20038;-88
2022/08/21 05:49:48;;;;;;;5.22;3.00;;;19.50;99.90;;;;;;5110004;28;20060;-83
2022/08/21 05:52:19;;;;;;;6.80;3.30;;;19.50;99.90;;;;;;5112066;28;20478;-83
2022/08/21 05:54:44;;;;;;;5.82;2.85;;;19.60;99.90;;;;;;5112812;28;20035;-83
2022/08/21 05:57:10;;;;;;;6.80;3.58;;;19.70;99.90;;;;;;5115561;28;20032;-82
2022/08/21 05:59:35;;;;;;;6.72;2.78;;;19.70;99.90;;;;;;5115007;28;20030;-82
2022/08/21 06:02:02;;;;;;;7.75;3.70;;;19.80;99.90;;;;;;5108151;28;20031;-82
2022/08/21 06:04:27;;;;;;;8.43;2.72;;;19.80;99.90;;;;;;5109619;28;20035;-82
2022/08/21 06:06:53;;;;;;;8.65;3.08;;;19.90;99.90;;;;;;5102905;28;20031;-83
2022/08/21 06:09:18;;;;;;;11.65;3.83;;;19.90;99.90;;;;;;5110254;28;20429;-85
2022/08/21 06:11:44;;;;;;;4.07;2.17;;;20.00;99.90;;;;;;5107734;28;20035;-83
2022/08/21 06:14:13;;;;;;;4.13;2.80;;;20.00;99.90;;;;;;5104249;28;20050;-84
2022/08/21 06:16:38;;;;;;;6.35;2.55;;;20.10;99.90;;;;;;5102400;28;20505;-83
2022/08/21 06:19:04;;;;;;;3.45;2.65;;;20.10;99.90;;;;;;5102328;28;20088;-82
2022/08/21 06:21:29;;;;;;;3.40;3.08;;;20.20;99.90;;;;;;5100990;28;20493;-84
2022/08/21 06:23:56;;;;;;;7.40;2.60;;;20.20;99.90;;;;;;5103457;28;20076;-83
2022/08/21 06:26:23;;;;;;;3.28;2.70;;;20.30;99.90;;;;;;5107451;28;20048;-83
2022/08/21 06:28:49;;;;;;;5.55;2.50;;;20.30;99.90;;;;;;5102466;27;20057;-82
2022/08/21 06:31:21;;;;;;;7.32;2.80;;;20.30;99.90;;;;;;5111009;27;20422;-82
2022/08/21 06:33:47;;;;;;;5.57;2.80;;;20.30;99.90;;;;;;5101644;28;20054;-83
2022/08/21 06:36:13;;;;;;;4.90;2.55;;;20.30;99.90;;;;;;5111787;28;20032;-85
2022/08/21 06:38:40;;;;;;;7.88;2.45;;;20.30;99.90;;;;;;5112005;28;20058;-83
2022/08/21 06:41:07;;;;;;;4.68;2.47;;;20.40;99.90;;;;;;5128754;28;20057;-82
2022/08/21 06:43:33;;;;;;;3.75;2.50;;;20.40;99.90;;;;;;5127210;28;20123;-85
2022/08/21 06:45:58;;;;;;;4.30;2.47;;;20.40;99.90;;;;;;5129811;28;20398;-81
2022/08/21 06:48:24;;;;;;;5.97;2.97;;;20.30;99.90;;;;;;5115010;27;20112;-83
2022/08/21 06:50:51;;;;;;;6.72;2.15;;;20.30;99.90;;;;;;5107822;28;20028;-83
2022/08/21 06:53:19;;;;;;;6.28;2.75;;;20.30;99.90;;;;;;5101847;28;20531;-84
2022/08/21 06:55:45;;;;;;;3.00;1.98;;;20.30;99.90;;;;;;5105403;27;20035;-81
2022/08/21 06:58:11;;;;;;;5.15;2.35;;;20.40;99.90;;;;;;5107070;27;20035;-84
2022/08/21 07:00:43;;;;;;;3.47;2.40;;;20.40;99.90;;;;;;5108706;28;20417;-82
2022/08/21 07:03:20;;;;;;;7.57;3.13;;;20.40;99.90;;;;;;5112248;28;20106;-84
2022/08/21 07:05:46;;;;;;;10.93;2.55;;;20.40;99.90;;;;;;5101006;28;20032;-84
2022/08/21 07:08:12;;;;;;;5.65;2.85;;;20.40;99.90;;;;;;5108265;28;20024;-83
2022/08/21 07:10:37;;;;;;;2.83;2.08;;;20.40;99.90;;;;;;5111043;28;20608;-82
2022/08/21 07:13:03;;;;;;;6.55;2.10;;;20.40;99.90;;;;;;5110213;28;20035;-82
2022/08/21 07:15:31;;;;;;;6.25;2.33;;;20.40;99.90;;;;;;5112557;27;20556;-83
2022/08/21 07:17:59;;;;;;;3.80;1.73;;;20.40;99.90;;;;;;5098032;28;20016;-83
2022/08/21 07:20:24;;;;;;;2.63;1.75;;;20.40;99.90;;;;;;5103012;28;20031;-83
2022/08/21 07:22:50;;;;;;;4.03;1.90;;;20.60;99.90;;;;;;5109404;28;20448;-82
2022/08/21 07:25:16;;;;;;;5.03;2.17;;;20.60;99.90;;;;;;5110013;28;20166;-83
2022/08/21 07:27:41;;;;;;;5.78;1.95;;;20.70;99.90;;;;;;5107915;28;20059;-83
2022/08/21 07:30:07;;;;;;;7.00;1.70;;;20.90;99.90;;;;;;5109450;28;20575;-83
2022/08/21 07:32:33;;;;;;;5.22;2.28;;;21.00;99.90;;;;;;5106683;28;20036;-86
2022/08/21 07:34:58;;;;;;;6.65;1.98;;;21.10;99.90;;;;;;5104595;28;20409;-87
2022/08/21 07:37:24;;;;;;;4.47;1.77;;;21.30;99.70;;;;;;5106103;28;20043;-83
2022/08/21 07:39:50;;;;;;;4.15;1.70;;;21.50;99.90;;;;;;5106134;28;20028;-83
2022/08/21 07:42:16;;;;;;;9.15;3.17;;;21.60;99.30;;;;;;5104819;28;20111;-86
2022/08/21 07:44:42;;;;;;;4.20;1.90;;;21.70;99.70;;;;;;5108548;28;20177;-82
2022/08/21 07:47:08;;;;;;;4.75;2.10;;;21.80;98.90;;;;;;5101180;28;20074;-83
2022/08/21 07:49:33;;;;;;;4.65;1.70;;;21.90;98.40;;;;;;5104024;27;20039;-81
2022/08/21 07:51:59;;;;;;;4.00;1.85;;;21.90;98.40;;;;;;5108646;28;20505;-83
2022/08/21 07:54:25;;;;;;;6.93;2.10;;;21.90;98.00;;;;;;5106362;28;20092;-81
2022/08/21 07:56:50;;;;;;;5.10;1.88;;;21.90;97.50;;;;;;5107917;28;20068;-83
2022/08/21 07:59:16;;;;;;;6.43;1.50;;;21.90;97.80;;;;;;5110966;28;20069;-82
2022/08/21 08:01:41;;;;;;;5.78;1.40;;;22.00;98.30;;;;;;5107277;28;20039;-81
2022/08/21 08:04:07;;;;;;;6.32;1.45;;;22.00;98.40;;;;;;5107944;28;20042;-81
2022/08/21 08:06:32;;;;;;;4.57;1.92;;;22.00;97.70;;;;;;5105557;28;20047;-81
2022/08/21 08:08:58;;;;;;;6.15;1.95;;;22.10;97.90;;;;;;5108432;28;20035;-86
2022/08/21 08:11:23;;;;;;;7.15;2.28;;;22.10;97.50;;;;;;5114272;28;20047;-83
2022/08/21 08:13:51;;;;;;;3.10;1.52;;;22.10;98.50;;;;;;5112085;28;20046;-80
2022/08/21 08:16:18;;;;;;;5.13;1.60;;;22.10;98.50;;;;;;5114044;28;20106;-81
2022/08/21 08:18:44;;;;;;;2.40;1.42;;;22.20;98.80;;;;;;5104325;28;20031;-81
2022/08/21 08:21:10;;;;;;;4.80;1.92;;;22.30;99.10;;;;;;5111244;28;20036;-81
2022/08/21 08:23:36;;;;;;;2.55;1.42;;;22.40;98.20;;;;;;5112518;28;20024;-81
2022/08/21 08:26:04;;;;;;;4.43;1.20;;;22.50;98.40;;;;;;5105136;28;20111;-82
2022/08/21 08:28:31;;;;;;;3.25;1.20;;;22.60;97.60;;;;;;5106578;28;20029;-84
2022/08/21 08:30:57;;;;;;;7.50;1.48;;;22.70;97.00;;;;;;5103865;28;20020;-79
2022/08/21 08:33:23;;;;;;;3.42;1.73;;;22.80;96.70;;;;;;5111502;28;20043;-81
2022/08/21 08:35:50;;;;;;;6.75;1.85;;;22.90;97.10;;;;;;5109806;28;20035;-80
2022/08/21 08:38:18;;;;;;;3.72;1.38;;;22.90;96.80;;;;;;5106734;28;20036;-84
2022/08/21 08:40:55;;;;;;;4.88;1.35;;;23.00;95.60;;;;;;5105345;28;20081;-82
2022/08/21 08:43:21;;;;;;;5.57;1.25;;;23.00;95.30;;;;;;5105523;28;20051;-83
2022/08/21 08:45:50;;;;;;;3.50;1.70;;;23.10;95.40;;;;;;5110222;28;20062;-85
2022/08/21 08:48:38;;;;;;;5.43;1.48;;;23.10;95.20;;;;;;5110547;27;20031;-84
2022/08/21 08:51:09;;;;;;;4.15;1.20;;;23.20;94.60;;;;;;5108763;27;20027;-86
2022/08/21 08:53:50;;;;;;;2.75;1.17;;;23.10;94.70;;;;;;5119487;27;20040;-80
2022/08/21 08:56:21;;;;;;;2.60;1.63;;;23.10;95.30;;;;;;5105590;28;20028;-80
2022/08/21 08:58:47;;;;;;;5.25;1.00;;;23.10;95.00;;;;;;5108566;27;20034;-81
2022/08/21 09:01:18;;;;;;;9.38;1.63;;;23.20;95.30;;;;;;5110759;27;20031;-80
2022/08/21 09:03:49;;;;;;;6.22;1.90;;;23.20;93.20;;;;;;5098533;28;20041;-79
2022/08/21 09:06:33;;;;;;;8.00;1.45;;;23.10;94.30;;;;;;5118590;27;20035;-80
2022/08/21 09:09:08;;;;;;;3.15;1.08;;;23.20;93.90;;;;;;5105444;28;20031;-80
2022/08/21 09:11:59;;;;;;;3.58;1.30;;;23.40;94.00;;;;;;5108425;28;20034;-83
2022/08/21 09:14:46;;;;;;;2.17;0.70;;;23.50;93.70;;;;;;5105270;28;20040;-85
2022/08/21 09:17:40;;;;;;;5.95;1.30;;;23.60;92.60;;;;;;5098674;28;20031;-83
2022/08/21 09:20:17;;;;;;;2.35;1.00;;;23.80;91.70;;;;;;5081552;28;20038;-84
2022/08/21 09:23:15;;;;;;;1.98;0.90;;;23.80;91.80;;;;;;5107836;27;20036;-85
2022/08/21 09:26:06;;;;;;;3.67;1.70;;;23.90;91.30;;;;;;5093533;28;20024;-82
2022/08/21 09:28:34;;;;;;;6.20;1.33;;;23.90;91.10;;;;;;5105017;28;20032;-83
2022/08/21 09:31:03;;;;;;;5.68;1.60;;;23.90;92.00;;;;;;5106324;28;20548;-86
2022/08/21 09:33:29;;;;;;;4.82;1.33;;;24.00;90.80;;;;;;5095722;28;20032;-84
2022/08/21 09:35:59;;;;;;;4.93;1.23;;;24.00;90.90;;;;;;5104461;28;20040;-84
2022/08/21 09:38:31;;;;;;;4.75;1.38;;;24.00;90.80;;;;;;5099433;28;20036;-83
2022/08/21 09:41:03;;;;;;;3.70;1.45;;;24.10;91.10;;;;;;5107095;28;20027;-85
2022/08/21 09:43:29;;;;;;;5.77;1.90;;;24.30;92.30;;;;;;5108133;28;20186;-84
2022/08/21 09:46:11;;;;;;;5.00;1.48;;;24.50;91.40;;;;;;5110350;28;20309;-81
2022/08/21 09:48:52;;;;;;;3.42;1.20;;;24.70;90.70;;;;;;5095961;28;20416;-82
2022/08/21 09:51:22;;;;;;;3.55;0.98;;;24.90;91.10;;;;;;5106441;28;20537;-80
2022/08/21 09:54:06;;;;;;;4.88;1.17;;;25.10;90.80;;;;;;5103773;28;20031;-80
2022/08/21 09:59:26;;;;;;;2.45;0.90;;;25.60;90.30;;;;;;5111156;28;20035;-83
2022/08/21 10:01:53;;;;;;;1.85;0.98;;;25.70;87.70;;;;;;5109865;28;20027;-82
2022/08/21 10:04:28;;;;;;;7.00;1.20;;;25.50;86.80;;;;;;5105845;28;20099;-85
2022/08/21 10:06:54;;;;;;;3.10;0.90;;;25.30;85.90;;;;;;5116331;27;20007;-83
2022/08/21 10:09:21;;;;;;;6.70;1.08;;;25.20;86.10;;;;;;5130110;28;20019;-84
2022/08/21 10:12:20;;;;;;;3.72;1.20;;;25.30;85.40;;;;;;5128202;28;20411;-81
2022/08/21 10:15:07;;;;;;;3.65;1.73;;;25.40;85.90;;;;;;5109160;27;20047;-88
2022/08/21 10:17:44;;;;;;;2.30;0.82;;;25.60;85.20;;;;;;5112571;28;20115;-83
2022/08/21 10:20:37;;;;;;;1.83;0.82;;;25.70;85.80;;;;;;5106834;28;20055;-85
2022/08/21 10:23:31;;;;;;;6.50;1.27;;;25.80;87.10;;;;;;5104640;27;20485;-84
2022/08/21 10:26:24;;;;;;;4.03;1.20;;;25.70;85.10;;;;;;5113444;27;20103;-83
2022/08/21 10:29:01;;;;;;;3.53;1.00;;;25.60;83.10;;;;;;5105072;28;20395;-84
2022/08/21 10:31:48;;;;;;;3.45;1.10;;;25.60;85.60;;;;;;5105320;28;20100;-87
2022/08/21 10:34:28;;;;;;;2.47;1.00;;;25.60;85.20;;;;;;5108612;27;20056;-84
2022/08/21 10:37:11;;;;;;;4.32;0.90;;;25.60;85.10;;;;;;5106818;28;20026;-82
2022/08/21 10:39:44;;;;;;;7.10;1.33;;;25.50;83.70;;;;;;5103511;27;20046;-83
2022/08/21 10:42:33;;;;;;;2.60;1.08;;;25.30;84.30;;;;;;5111261;28;20042;-82
2022/08/21 10:45:12;;;;;;;2.53;0.82;;;25.30;82.90;;;;;;5109479;28;20024;-82
2022/08/21 10:47:47;;;;;;;4.85;1.05;;;25.30;86.70;;;;;;5110155;28;20118;-84
2022/08/21 10:50:19;;;;;;;3.28;1.30;;;25.30;85.70;;;;;;5106734;28;20024;-83
2022/08/21 10:52:48;;;;;;;3.55;0.93;;;25.50;85.50;;;;;;5100224;28;20346;-82
2022/08/21 10:55:20;;;;;;;4.20;1.05;;;25.70;83.10;;;;;;5112027;28;20046;-84
2022/08/21 10:58:04;;;;;;;2.85;0.90;;;25.90;82.50;;;;;;5113931;28;20019;-85
2022/08/21 11:00:45;;;;;;;3.85;0.95;;;26.00;80.50;;;;;;5105276;28;20039;-82
2022/08/21 11:03:21;;;;;;;2.75;0.77;;;25.90;82.10;;;;;;5109200;28;21110;-81
2022/08/21 11:05:57;;;;;;;4.68;1.42;;;26.00;80.00;;;;;;5112999;28;20063;-79
2022/08/21 11:08:49;;;;;;;6.53;1.30;;;26.10;81.40;;;;;;5111604;28;20043;-81
2022/08/21 11:11:31;;;;;;;4.93;1.17;;;26.30;80.50;;;;;;5123433;28;20040;-80
2022/08/21 11:14:20;;;;;;;4.13;0.80;;;26.40;78.40;;;;;;5125191;27;20678;-82
2022/08/21 11:16:57;;;;;;;4.53;1.00;;;26.40;80.10;;;;;;5110643;28;20487;-80
2022/08/21 11:19:31;;;;;;;7.90;1.67;;;26.50;77.90;;;;;;5100161;28;20484;-81
2022/08/21 11:22:21;;;;;;;3.67;1.17;;;26.60;77.10;;;;;;5112304;28;20024;-81
2022/08/21 11:25:02;;;;;;;2.75;0.85;;;26.40;77.40;;;;;;5112373;28;20381;-83
2022/08/21 11:27:46;;;;;;;4.57;1.23;;;26.50;78.60;;;;;;5123086;27;20061;-83
2022/08/21 11:30:13;;;;;;;2.78;0.95;;;26.70;79.50;;;;;;5110285;28;20047;-85
2022/08/21 11:33:22;;;;;;;7.95;1.27;;;26.90;78.80;;;;;;5110491;28;20032;-82
2022/08/21 11:35:50;;;;;;;4.40;0.93;;;27.00;74.30;;;;;;5113830;27;20743;-84
2022/08/21 11:38:34;;;;;;;5.00;1.10;;;26.90;76.10;;;;;;5114282;27;20031;-84
2022/08/21 11:41:11;;;;;;;4.28;0.90;;;26.90;74.00;;;;;;5112948;28;20126;-83
2022/08/21 11:43:47;;;;;;;3.60;0.82;;;26.90;75.50;;;;;;5112892;28;20055;-84
2022/08/21 11:46:44;;;;;;;5.28;1.30;;;27.00;75.30;;;;;;5111686;28;20023;-83
2022/08/21 11:49:30;;;;;;;4.55;1.00;;;27.00;76.00;;;;;;5112037;28;20039;-86
2022/08/21 11:52:19;;;;;;;5.90;0.88;;;27.00;74.50;;;;;;5108682;28;20078;-83
2022/08/21 11:54:56;;;;;;;4.43;1.00;;;26.80;72.70;;;;;;5123667;27;20027;-82
2022/08/21 11:57:39;;;;;;;5.07;1.20;;;26.70;72.50;;;;;;5110220;27;20016;-82
2022/08/21 12:00:28;;;;;;;5.47;1.00;;;26.70;75.90;;;;;;5099907;28;20073;-78
2022/08/21 12:02:58;;;;;;;2.75;0.88;;;26.80;75.90;;;;;;5111951;28;20073;-82
2022/08/21 12:05:34;;;;;;;2.72;0.88;;;26.90;74.40;;;;;;5112213;28;20604;-83
2022/08/21 12:08:10;;;;;;;3.15;0.95;;;27.00;74.20;;;;;;5111237;28;20028;-82
2022/08/21 12:10:45;;;;;;;3.50;1.08;;;27.10;72.40;;;;;;5109302;28;20027;-81
2022/08/21 12:13:23;;;;;;;4.22;0.80;;;27.00;72.20;;;;;;5110045;28;20034;-82
2022/08/21 12:15:49;;;;;;;2.45;1.08;;;27.20;75.90;;;;;;5115095;27;20493;-80
2022/08/21 12:18:20;;;;;;;5.68;1.33;;;27.20;72.30;;;;;;5103160;28;20049;-80
2022/08/21 12:21:17;;;;;;;4.47;1.20;;;27.30;71.30;;;;;;5103242;28;20474;-84
2022/08/21 12:24:18;;;;;;;6.38;1.33;;;27.20;73.60;;;;;;5112043;28;20027;-80
2022/08/21 12:26:53;;;;;;;6.10;1.17;;;27.40;73.70;;;;;;5105196;28;20072;-81
2022/08/21 12:29:29;;;;;;;6.10;1.70;;;27.40;72.20;;;;;;5106775;28;20463;-79
2022/08/21 12:32:01;;;;;;;6.63;1.70;;;27.40;71.60;;;;;;5105521;28;20118;-82
2022/08/21 12:34:50;;;;;;;;;;;27.50;73.10;;;;;;5106162;28;20032;-84
2022/08/21 12:37:34;;;;;;;4.93;0.90;;;27.60;73.00;;;;;;5094461;28;19914;-82
2022/08/21 12:40:02;;;;;;;4.38;0.90;;;27.50;73.40;;;;;;5103737;28;20100;-81
2022/08/21 12:42:41;;;;;;;3.10;0.82;;;27.40;73.70;;;;;;5105421;28;20056;-81
2022/08/21 12:45:35;;;;;;;4.82;1.02;;;27.40;71.90;;;;;;5105457;28;20126;-83
2022/08/21 12:48:08;;;;;;;6.03;1.20;;;27.30;72.60;;;;;;5103503;28;20040;-81
2022/08/21 12:50:39;;;;;;;3.00;1.13;;;27.10;75.10;;;;;;5105100;28;20047;-81
2022/08/21 12:53:33;;;;;;;4.78;1.50;;;27.30;72.80;;;;;;5100924;28;20043;-82
2022/08/21 12:56:03;;;;;;;4.28;0.98;;;27.70;77.00;;;;;;5112545;27;20027;-81
2022/08/21 12:58:30;;;;;;;2.92;0.93;;;28.00;72.20;;;;;;5112431;27;20050;-82
2022/08/21 13:01:06;;;;;;;3.58;1.00;;;28.00;71.00;;;;;;5113720;27;20622;-82
2022/08/21 13:03:36;;;;;;;5.25;1.40;;;27.90;72.40;;;;;;5118882;27;20031;-83